createdAt,value
2023-04-04T00:00:32.748Z,17.50
2023-04-04T00:03:00.811Z,11.27
2023-04-04T00:05:28.746Z,13.57
2023-04-04T00:07:56.616Z,15.57
2023-04-04T00:10:25.781Z,15.97
2023-04-04T00:12:53.749Z,9.20
2023-04-04T00:15:22.258Z,12.87
2023-04-04T00:17:50.479Z,6.50
2023-04-04T00:20:18.448Z,7.63
2023-04-04T00:22:46.373Z,8.00
2023-04-04T00:25:14.481Z,7.83
2023-04-04T00:27:43.832Z,6.83
2023-04-04T00:30:13.417Z,7.13
2023-04-04T00:32:42.830Z,4.87
2023-04-04T00:35:10.888Z,7.17
2023-04-04T00:37:39.048Z,6.33
2023-04-04T00:40:08.578Z,5.10
2023-04-04T00:42:37.347Z,3.67
2023-04-04T00:45:08.616Z,3.50
2023-04-04T00:47:37.276Z,5.67
2023-04-04T00:50:05.956Z,6.63
2023-04-04T00:52:33.864Z,4.40
2023-04-04T00:55:01.761Z,3.23
2023-04-04T00:57:29.953Z,6.57
2023-04-04T00:59:58.434Z,5.13
2023-04-04T01:02:28.139Z,7.33
2023-04-04T01:04:56.792Z,4.57
2023-04-04T01:07:24.833Z,5.57
2023-04-04T01:09:53.124Z,5.73
2023-04-04T01:12:21.104Z,4.63
2023-04-04T01:14:48.970Z,4.63
2023-04-04T01:17:17.465Z,5.60
2023-04-04T01:19:54.872Z,4.23
2023-04-04T01:22:24.455Z,4.97
2023-04-04T01:24:53.190Z,5.30
2023-04-04T01:27:23.698Z,4.37
2023-04-04T01:29:57.075Z,4.50
2023-04-04T01:32:31.036Z,5.83
2023-04-04T01:35:06.820Z,6.47
2023-04-04T01:37:39.558Z,5.83
2023-04-04T01:40:17.748Z,6.70
2023-04-04T01:42:51.517Z,6.40
2023-04-04T01:45:22.957Z,5.67
2023-04-04T01:47:52.098Z,5.87
2023-04-04T01:50:24.188Z,4.67
2023-04-04T01:52:52.230Z,7.63
2023-04-04T01:55:20.273Z,8.70
2023-04-04T01:57:48.053Z,8.17
2023-04-04T02:00:17.782Z,6.17
2023-04-04T02:02:45.970Z,6.07
2023-04-04T02:05:13.972Z,6.77
2023-04-04T02:07:41.995Z,9.37
2023-04-04T02:10:22.058Z,6.60
2023-04-04T02:12:50.270Z,8.23
2023-04-04T02:15:19.489Z,9.60
2023-04-04T02:17:49.464Z,6.87
2023-04-04T02:20:18.553Z,7.67
2023-04-04T02:22:52.694Z,9.23
2023-04-04T02:25:20.607Z,6.80
2023-04-04T02:27:48.350Z,8.07
2023-04-04T02:30:16.494Z,6.40
2023-04-04T02:32:47.308Z,8.83
2023-04-04T02:35:18.537Z,8.67
2023-04-04T02:37:47.366Z,6.53
2023-04-04T02:40:22.270Z,7.80
2023-04-04T02:42:50.392Z,8.13
2023-04-04T02:45:18.644Z,7.63
2023-04-04T02:47:57.963Z,5.17
2023-04-04T02:50:36.277Z,6.33
2023-04-04T02:53:04.709Z,8.93
2023-04-04T02:55:36.090Z,6.20
2023-04-04T02:58:04.231Z,7.83
2023-04-04T03:00:33.050Z,6.70
2023-04-04T03:03:02.574Z,7.43
2023-04-04T03:05:34.245Z,6.43
2023-04-04T03:08:02.961Z,8.17
2023-04-04T03:10:31.111Z,7.63
2023-04-04T03:12:59.112Z,7.00
2023-04-04T03:15:29.040Z,7.20
2023-04-04T03:17:57.096Z,7.77
2023-04-04T03:20:29.127Z,7.57
2023-04-04T03:22:57.767Z,6.80
2023-04-04T03:25:25.854Z,8.93
2023-04-04T03:27:53.743Z,6.80
2023-04-04T03:30:24.665Z,8.07
2023-04-04T03:32:53.494Z,7.57
2023-04-04T03:35:21.648Z,7.77
2023-04-04T03:37:50.851Z,5.60
2023-04-04T03:40:18.607Z,6.67
2023-04-04T03:42:47.063Z,9.53
2023-04-04T03:45:19.835Z,10.97
2023-04-04T03:47:48.261Z,9.30
2023-04-04T03:50:16.696Z,10.37
2023-04-04T03:52:52.191Z,7.50
2023-04-04T03:55:20.410Z,6.47
2023-04-04T03:57:48.330Z,8.07
2023-04-04T04:00:17.760Z,7.97
2023-04-04T04:02:46.903Z,10.13
2023-04-04T04:05:14.883Z,9.43
2023-04-04T04:07:44.652Z,8.27
2023-04-04T04:10:15.137Z,8.73
2023-04-04T04:12:42.875Z,6.50
2023-04-04T04:15:11.398Z,9.73
2023-04-04T04:17:42.013Z,6.50
2023-04-04T04:20:12.477Z,10.50
2023-04-04T04:22:48.146Z,14.77
2023-04-04T04:25:18.517Z,8.37
2023-04-04T04:28:02.769Z,7.77
2023-04-04T04:30:30.608Z,6.10
2023-04-04T04:32:58.696Z,7.10
2023-04-04T04:35:32.985Z,8.70
2023-04-04T04:38:03.244Z,8.10
2023-04-04T04:40:32.842Z,11.33
2023-04-04T04:43:06.807Z,8.13
2023-04-04T04:45:34.707Z,12.10
2023-04-04T04:48:09.024Z,7.47
2023-04-04T04:50:44.475Z,8.63
2023-04-04T04:53:13.856Z,6.97
2023-04-04T04:55:43.733Z,11.50
2023-04-04T04:58:12.206Z,7.00
2023-04-04T05:00:45.525Z,10.10
2023-04-04T05:03:13.705Z,11.23
2023-04-04T05:05:48.750Z,10.87
2023-04-04T05:08:17.645Z,6.30
2023-04-04T05:11:05.819Z,8.97
2023-04-04T05:13:35.178Z,8.70
2023-04-04T05:16:04.746Z,9.67
2023-04-04T05:18:33.854Z,9.40
2023-04-04T05:21:02.724Z,8.37
2023-04-04T05:23:31.212Z,8.57
2023-04-04T05:25:58.936Z,9.93
2023-04-04T05:28:32.658Z,12.67
2023-04-04T05:31:03.777Z,9.40
2023-04-04T05:33:33.423Z,10.17
2023-04-04T05:36:09.136Z,13.63
2023-04-04T05:38:42.956Z,11.13
2023-04-04T05:41:11.397Z,12.23
2023-04-04T05:43:40.966Z,9.33
2023-04-04T05:46:14.507Z,13.00
2023-04-04T05:48:47.523Z,9.10
2023-04-04T05:51:15.604Z,13.67
2023-04-04T05:54:03.648Z,8.60
2023-04-04T05:56:36.337Z,11.30
2023-04-04T05:59:09.643Z,11.00
2023-04-04T06:01:48.419Z,12.67
2023-04-04T06:04:16.550Z,7.90
2023-04-04T06:06:45.434Z,12.93
2023-04-04T06:09:13.733Z,11.30
2023-04-04T06:11:41.595Z,11.83
2023-04-04T06:14:15.163Z,11.77
2023-04-04T06:16:44.364Z,6.50
2023-04-04T06:19:12.070Z,11.97
2023-04-04T06:21:39.832Z,10.33
2023-04-04T06:24:09.232Z,10.77
2023-04-04T06:26:37.779Z,13.00
2023-04-04T06:29:05.641Z,8.37
2023-04-04T06:31:38.687Z,11.47
2023-04-04T06:34:11.290Z,12.50
2023-04-04T06:36:55.513Z,13.13
2023-04-04T06:39:27.287Z,14.17
2023-04-04T06:41:58.230Z,12.00
2023-04-04T06:44:29.227Z,10.87
2023-04-04T06:46:58.850Z,13.47
2023-04-04T06:49:26.771Z,15.37
2023-04-04T06:51:55.313Z,11.93
2023-04-04T06:54:23.390Z,15.60
2023-04-04T06:56:51.688Z,10.40
2023-04-04T06:59:19.689Z,16.10
2023-04-04T07:01:47.530Z,16.27
2023-04-04T07:04:19.915Z,13.60
2023-04-04T07:06:47.668Z,13.97
2023-04-04T07:09:28.115Z,13.10
2023-04-04T07:11:57.235Z,13.63
2023-04-04T07:14:25.744Z,16.50
2023-04-04T07:16:55.127Z,13.70
2023-04-04T07:19:28.548Z,10.23
2023-04-04T07:21:56.862Z,13.23
2023-04-04T07:24:24.768Z,14.23
2023-04-04T07:26:52.585Z,17.00
2023-04-04T07:29:21.609Z,10.07
2023-04-04T07:31:49.626Z,10.27
2023-04-04T07:34:17.670Z,12.33
2023-04-04T07:36:46.795Z,8.00
2023-04-04T07:39:14.733Z,8.23
2023-04-04T07:41:42.551Z,9.00
2023-04-04T07:44:10.684Z,11.90
2023-04-04T07:46:38.998Z,10.93
2023-04-04T07:49:07.592Z,10.30
2023-04-04T07:51:35.653Z,9.53
2023-04-04T07:54:05.076Z,8.00
2023-04-04T07:56:33.316Z,9.13
2023-04-04T07:59:01.954Z,12.10
2023-04-04T08:01:30.811Z,5.10
2023-04-04T08:03:58.885Z,7.80
2023-04-04T08:06:27.261Z,7.37
2023-04-04T08:08:57.548Z,10.97
2023-04-04T08:11:27.337Z,6.57
2023-04-04T08:13:55.112Z,6.00
2023-04-04T08:16:23.749Z,5.93
2023-04-04T08:18:51.636Z,6.17
2023-04-04T08:21:19.644Z,3.63
2023-04-04T08:23:47.369Z,4.03
2023-04-04T08:26:15.494Z,3.57
2023-04-04T08:28:45.404Z,5.73
2023-04-04T08:31:13.307Z,4.80
2023-04-04T08:36:12.174Z,7.17
2023-04-04T08:38:39.886Z,7.30
2023-04-04T08:41:08.744Z,5.13
2023-04-04T08:43:41.306Z,4.83
2023-04-04T08:46:11.682Z,8.73
2023-04-04T08:48:40.710Z,7.53
2023-04-04T08:51:11.886Z,4.93
2023-04-04T08:53:40.494Z,7.80
2023-04-04T08:56:08.571Z,8.10
2023-04-04T08:58:38.956Z,3.70
2023-04-04T09:01:07.358Z,5.83
2023-04-04T09:03:38.713Z,5.30
2023-04-04T09:06:07.286Z,7.80
2023-04-04T09:08:36.146Z,5.20
2023-04-04T09:11:04.969Z,5.67
2023-04-04T09:13:32.798Z,7.07
2023-04-04T09:16:01.966Z,5.10
2023-04-04T09:18:30.092Z,5.13
2023-04-04T09:20:59.727Z,7.23
2023-04-04T09:23:27.462Z,6.20
2023-04-04T09:26:03.664Z,6.67
2023-04-04T09:28:32.888Z,5.63
2023-04-04T09:31:02.428Z,5.93
2023-04-04T09:33:30.562Z,6.20
2023-04-04T09:36:03.180Z,5.80
2023-04-04T09:38:32.366Z,4.93
2023-04-04T09:41:00.555Z,5.07
2023-04-04T09:43:30.753Z,6.07
2023-04-04T09:46:00.259Z,5.43
2023-04-04T09:48:30.547Z,4.97
2023-04-04T09:51:00.561Z,6.07
2023-04-04T09:53:28.588Z,5.03
2023-04-04T09:55:58.238Z,6.63
2023-04-04T09:58:27.652Z,6.53
2023-04-04T10:00:57.218Z,5.83
2023-04-04T10:03:26.235Z,5.80
2023-04-04T10:05:59.988Z,5.73
2023-04-04T10:08:30.627Z,4.77
2023-04-04T10:11:10.327Z,6.43
2023-04-04T10:13:44.061Z,5.77
2023-04-04T10:16:12.504Z,6.63
2023-04-04T10:18:40.855Z,4.97
2023-04-04T10:23:43.253Z,5.80
2023-04-04T10:26:12.132Z,4.47
2023-04-04T10:28:40.309Z,5.87
2023-04-04T10:31:14.996Z,4.37
2023-04-04T10:33:49.222Z,5.30
2023-04-04T10:36:23.530Z,6.20
2023-04-04T10:39:04.252Z,4.23
2023-04-04T10:41:32.953Z,5.03
2023-04-04T10:44:08.346Z,3.70
2023-04-04T10:46:39.423Z,4.77
2023-04-04T10:49:07.492Z,5.43
2023-04-04T10:51:45.242Z,6.63
2023-04-04T10:54:22.921Z,4.20
2023-04-04T10:56:50.785Z,5.27
2023-04-04T10:59:18.882Z,8.03
2023-04-04T11:01:51.145Z,5.07
2023-04-04T11:04:22.040Z,4.13
2023-04-04T11:07:20.555Z,3.97
2023-04-04T11:10:01.829Z,5.03
2023-04-04T11:12:33.570Z,4.63
2023-04-04T11:15:10.801Z,9.07
2023-04-04T11:18:00.262Z,4.90
2023-04-04T11:20:33.463Z,7.63
2023-04-04T11:23:10.820Z,4.33
2023-04-04T11:25:42.196Z,5.33
2023-04-04T11:28:14.898Z,5.07
2023-04-04T11:30:51.640Z,7.63
2023-04-04T11:33:28.798Z,4.67
2023-04-04T11:36:00.599Z,4.83
2023-04-04T11:38:29.974Z,5.77
2023-04-04T11:40:59.525Z,6.27
2023-04-04T11:43:29.796Z,3.63
2023-04-04T11:46:08.713Z,4.73
2023-04-04T11:48:36.817Z,4.00
2023-04-04T11:51:05.268Z,4.50
2023-04-04T11:53:34.255Z,6.50
2023-04-04T11:56:04.014Z,4.17
2023-04-04T11:58:37.101Z,4.83
2023-04-04T12:01:06.010Z,6.20
2023-04-04T12:03:35.012Z,5.03
2023-04-04T12:06:03.064Z,4.03
2023-04-04T12:08:33.633Z,6.07
2023-04-04T12:11:09.481Z,3.80
2023-04-04T12:13:43.482Z,4.90
2023-04-04T12:16:11.781Z,6.00
2023-04-04T12:18:39.944Z,6.17
2023-04-04T12:21:08.529Z,4.13
2023-04-04T12:23:36.879Z,5.80
2023-04-04T12:26:07.144Z,3.83
2023-04-04T12:28:36.103Z,6.43
2023-04-04T12:31:05.702Z,4.77
2023-04-04T12:33:35.569Z,6.13
2023-04-04T12:36:05.246Z,4.23
2023-04-04T12:38:33.930Z,7.17
2023-04-04T12:41:01.939Z,4.73
2023-04-04T12:43:33.853Z,8.37
2023-04-04T12:46:03.250Z,6.20
2023-04-04T12:48:31.736Z,6.63
2023-04-04T12:51:00.758Z,5.83
2023-04-04T12:53:30.169Z,5.57
2023-04-04T12:56:03.122Z,6.47
2023-04-04T12:58:34.882Z,6.87
2023-04-04T13:01:04.775Z,7.40
2023-04-04T13:03:34.798Z,6.13
2023-04-04T13:06:03.726Z,5.97
2023-04-04T13:08:31.716Z,5.57
2023-04-04T13:11:03.615Z,3.33
2023-04-04T13:13:38.644Z,4.00
2023-04-04T13:16:08.154Z,4.87
2023-04-04T13:18:39.236Z,4.77
2023-04-04T13:21:10.898Z,4.13
2023-04-04T13:23:40.611Z,3.67
2023-04-04T13:26:09.972Z,4.10
2023-04-04T13:28:40.170Z,6.47
2023-04-04T13:31:10.018Z,5.17
2023-04-04T13:33:38.880Z,4.23
2023-04-04T13:36:07.530Z,3.50
2023-04-04T13:38:36.052Z,5.80
2023-04-04T13:41:03.918Z,4.67
2023-04-04T13:43:31.820Z,6.27
2023-04-04T13:46:01.117Z,4.27
2023-04-04T13:48:28.954Z,4.60
2023-04-04T13:50:57.459Z,5.57
2023-04-04T13:53:25.409Z,3.87
2023-04-04T13:58:24.028Z,5.73
2023-04-04T14:00:52.498Z,6.20
2023-04-04T14:03:22.446Z,3.90
2023-04-04T14:05:50.364Z,4.20
2023-04-04T14:08:18.181Z,3.57
2023-04-04T14:10:46.316Z,4.93
2023-04-04T14:13:14.405Z,7.13
2023-04-04T14:15:42.895Z,10.37
2023-04-04T14:18:12.214Z,3.83
2023-04-04T14:20:41.548Z,6.10
2023-04-04T14:23:09.701Z,4.93
2023-04-04T14:25:37.679Z,6.37
2023-04-04T14:28:06.213Z,4.97
2023-04-04T14:30:34.088Z,3.50
2023-04-04T14:33:02.119Z,6.60
2023-04-04T14:35:29.903Z,6.77
2023-04-04T14:37:59.017Z,4.07
2023-04-04T14:40:27.328Z,6.00
2023-04-04T14:42:55.156Z,4.97
2023-04-04T14:45:23.742Z,4.20
2023-04-04T14:47:51.810Z,3.17
2023-04-04T14:50:19.659Z,4.73
2023-04-04T14:52:51.041Z,6.10
2023-04-04T14:55:20.867Z,6.03
2023-04-04T14:58:01.209Z,3.23
2023-04-04T15:00:30.213Z,5.23
2023-04-04T15:02:58.329Z,4.43
2023-04-04T15:05:26.386Z,6.17
2023-04-04T15:07:55.526Z,5.53
2023-04-04T15:10:24.716Z,7.00
2023-04-04T15:12:52.467Z,5.80
2023-04-04T15:15:21.660Z,8.60
2023-04-04T15:17:51.432Z,4.53
2023-04-04T15:20:19.268Z,5.90
2023-04-04T15:22:47.072Z,4.23
2023-04-04T15:25:14.959Z,3.87
2023-04-04T15:27:44.002Z,4.87
2023-04-04T15:30:13.441Z,4.10
2023-04-04T15:32:41.355Z,4.80
2023-04-04T15:35:17.492Z,5.90
2023-04-04T15:37:45.724Z,5.80
2023-04-04T15:40:13.876Z,5.30
2023-04-04T15:42:41.759Z,4.87
2023-04-04T15:45:12.358Z,4.90
2023-04-04T15:47:40.287Z,3.57
2023-04-04T15:50:08.965Z,4.90
2023-04-04T15:52:36.682Z,4.17
2023-04-04T15:55:04.800Z,4.60
2023-04-04T15:57:32.953Z,4.23
2023-04-04T16:00:00.879Z,6.97
2023-04-04T16:02:30.098Z,4.83
2023-04-04T16:04:58.458Z,3.43
2023-04-04T16:07:26.529Z,6.90
2023-04-04T16:09:54.352Z,4.97
2023-04-04T16:12:22.442Z,5.47
2023-04-04T16:14:50.343Z,4.43
2023-04-04T16:17:18.118Z,4.63
2023-04-04T16:19:47.659Z,5.13
2023-04-04T16:22:15.439Z,5.83
2023-04-04T16:24:43.209Z,5.00
2023-04-04T16:27:11.885Z,6.53
2023-04-04T16:29:39.804Z,6.33
2023-04-04T16:32:08.151Z,7.23
2023-04-04T16:34:38.795Z,5.33
2023-04-04T16:37:09.733Z,4.87
2023-04-04T16:39:37.504Z,4.87
2023-04-04T16:42:05.435Z,6.33
2023-04-04T16:44:33.280Z,4.60
2023-04-04T16:47:01.039Z,5.23
2023-04-04T16:49:28.997Z,5.10
2023-04-04T16:51:56.839Z,4.50
2023-04-04T16:54:26.285Z,10.57
2023-04-04T16:56:54.442Z,7.03
2023-04-04T16:59:22.149Z,6.77
2023-04-04T17:01:49.949Z,5.93
2023-04-04T17:04:17.865Z,5.27
2023-04-04T17:06:45.916Z,7.20
2023-04-04T17:09:13.830Z,5.90
2023-04-04T17:11:44.924Z,6.93
2023-04-04T17:14:12.763Z,6.80
2023-04-04T17:16:40.744Z,7.77
2023-04-04T17:19:08.764Z,5.60
2023-04-04T17:21:36.794Z,6.27
2023-04-04T17:24:05.713Z,6.77
2023-04-04T17:26:34.050Z,5.47
2023-04-04T17:29:03.205Z,4.87
2023-04-04T17:31:31.137Z,5.97
2023-04-04T17:33:59.008Z,5.53
2023-04-04T17:36:27.086Z,7.57
2023-04-04T17:38:55.335Z,7.97
2023-04-04T17:41:23.252Z,5.17
2023-04-04T17:43:52.043Z,4.80
2023-04-04T17:46:21.119Z,6.27
2023-04-04T17:48:48.827Z,5.30
2023-04-04T17:51:17.782Z,6.20
2023-04-04T17:53:46.032Z,6.00
2023-04-04T17:56:13.962Z,6.97
2023-04-04T17:58:41.759Z,7.70
2023-04-04T18:01:09.774Z,4.37
2023-04-04T18:03:39.075Z,6.73
2023-04-04T18:06:07.077Z,7.03
2023-04-04T18:08:34.837Z,6.03
2023-04-04T18:11:04.090Z,6.67
2023-04-04T18:13:32.236Z,7.67
2023-04-04T18:16:02.524Z,5.77
2023-04-04T18:18:30.776Z,6.57
2023-04-04T18:21:00.360Z,7.13
2023-04-04T18:23:28.385Z,7.23
2023-04-04T18:25:56.639Z,7.90
2023-04-04T18:28:24.879Z,8.43
2023-04-04T18:30:52.932Z,8.50
2023-04-04T18:33:21.068Z,6.67
2023-04-04T18:35:48.927Z,9.13
2023-04-04T18:38:18.116Z,6.70
2023-04-04T18:40:46.912Z,8.33
2023-04-04T18:43:14.917Z,7.77
2023-04-04T18:45:42.894Z,6.63
2023-04-04T18:48:12.600Z,5.90
2023-04-04T18:50:40.966Z,9.20
2023-04-04T18:53:09.215Z,8.07
2023-04-04T18:55:39.193Z,5.30
2023-04-04T18:58:06.932Z,6.53
2023-04-04T19:00:34.755Z,4.70
2023-04-04T19:03:03.101Z,7.30
2023-04-04T19:05:33.324Z,6.57
2023-04-04T19:08:02.563Z,6.70
2023-04-04T19:10:30.934Z,8.60
2023-04-04T19:13:00.013Z,7.87
2023-04-04T19:15:28.027Z,6.83
2023-04-04T19:17:55.990Z,5.50
2023-04-04T19:20:23.774Z,6.23
2023-04-04T19:22:51.571Z,5.03
2023-04-04T19:25:20.344Z,6.13
2023-04-04T19:27:48.146Z,7.47
2023-04-04T19:30:49.154Z,7.33
2023-04-04T19:33:20.163Z,7.13
2023-04-04T19:35:51.995Z,6.47
2023-04-04T19:38:23.948Z,6.57
2023-04-04T19:40:54.701Z,6.83
2023-04-04T19:43:23.435Z,9.93
2023-04-04T19:45:52.942Z,5.33
2023-04-04T19:48:43.565Z,5.03
2023-04-04T19:51:33.476Z,8.53
2023-04-04T19:54:01.751Z,7.37
2023-04-04T19:56:29.990Z,4.40
2023-04-04T19:59:00.066Z,7.23
2023-04-04T20:01:30.020Z,7.83
2023-04-04T20:04:06.600Z,7.87
2023-04-04T20:06:35.628Z,7.27
2023-04-04T20:09:08.219Z,8.03
2023-04-04T20:11:38.034Z,5.47
2023-04-04T20:14:08.262Z,5.87
2023-04-04T20:16:36.912Z,7.97
2023-04-04T20:19:08.094Z,7.43
2023-04-04T20:21:36.138Z,6.77
2023-04-04T20:24:08.337Z,6.70
2023-04-04T20:26:51.171Z,7.60
2023-04-04T20:29:21.786Z,8.93
2023-04-04T20:31:51.692Z,9.97
2023-04-04T20:34:38.762Z,10.47
2023-04-04T20:37:09.240Z,6.53
2023-04-04T20:39:41.506Z,7.80
2023-04-04T20:42:20.320Z,6.70
2023-04-04T20:44:48.173Z,6.67
2023-04-04T20:47:41.878Z,7.13
2023-04-04T20:50:45.220Z,8.40
2023-04-04T20:53:20.990Z,9.43
2023-04-04T20:55:50.565Z,7.50
2023-04-04T20:58:26.748Z,6.70
2023-04-04T21:00:55.141Z,8.87
2023-04-04T21:03:37.458Z,7.70
2023-04-04T21:06:15.113Z,7.67
2023-04-04T21:08:45.408Z,9.97
2023-04-04T21:11:14.444Z,8.60
2023-04-04T21:13:44.702Z,9.70
2023-04-04T21:16:14.086Z,8.23
2023-04-04T21:18:42.714Z,6.90
2023-04-04T21:21:19.934Z,7.27
2023-04-04T21:23:53.225Z,8.27
2023-04-04T21:26:33.009Z,10.00
2023-04-04T21:29:02.468Z,13.00
2023-04-04T21:31:35.890Z,12.30
2023-04-04T21:34:08.920Z,9.27
2023-04-04T21:36:38.338Z,9.13
2023-04-04T21:39:10.846Z,9.67
2023-04-04T21:41:38.879Z,10.20
2023-04-04T21:44:08.334Z,7.83
2023-04-04T21:46:37.578Z,7.87
2023-04-04T21:49:06.366Z,12.13
2023-04-04T21:51:34.319Z,11.33
2023-04-04T21:54:03.764Z,7.73
2023-04-04T21:56:32.458Z,11.20
2023-04-04T21:59:00.905Z,10.30
2023-04-04T22:01:28.944Z,9.00
2023-04-04T22:03:56.935Z,9.17
2023-04-04T22:06:26.408Z,8.33
2023-04-04T22:08:56.562Z,7.93
2023-04-04T22:11:27.605Z,10.43
2023-04-04T22:14:03.984Z,9.83
2023-04-04T22:16:36.751Z,10.97
2023-04-04T22:19:04.903Z,12.13
2023-04-04T22:21:36.465Z,9.70
2023-04-04T22:24:05.822Z,9.37
2023-04-04T22:26:35.674Z,11.53
2023-04-04T22:29:06.125Z,12.53
2023-04-04T22:31:35.198Z,11.20
2023-04-04T22:34:03.931Z,9.10
2023-04-04T22:36:34.330Z,9.77
2023-04-04T22:39:02.746Z,7.37
2023-04-04T22:41:30.875Z,11.00
2023-04-04T22:44:00.166Z,8.50
2023-04-04T22:46:29.299Z,9.80
2023-04-04T22:49:04.873Z,8.30
2023-04-04T22:51:44.861Z,9.40
2023-04-04T22:54:14.172Z,9.57
2023-04-04T22:56:42.262Z,13.10
2023-04-04T22:59:12.070Z,8.60
2023-04-04T23:01:40.586Z,11.60
2023-04-04T23:04:08.484Z,7.57
2023-04-04T23:06:38.689Z,8.57
2023-04-04T23:09:07.472Z,10.87
2023-04-04T23:11:35.474Z,7.20
2023-04-04T23:14:08.439Z,10.77
2023-04-04T23:16:37.817Z,9.10
2023-04-04T23:19:05.668Z,10.80
2023-04-04T23:21:33.487Z,10.97
2023-04-04T23:24:01.315Z,10.23
2023-04-04T23:26:29.077Z,6.93
2023-04-04T23:28:57.066Z,9.80
2023-04-04T23:31:25.883Z,8.70
2023-04-04T23:33:55.375Z,8.70
2023-04-04T23:36:23.383Z,9.23
2023-04-04T23:38:51.396Z,8.67
2023-04-04T23:41:19.304Z,9.30
2023-04-04T23:43:47.089Z,7.97
2023-04-04T23:46:15.373Z,10.97
2023-04-04T23:48:43.270Z,10.87
2023-04-04T23:51:13.164Z,10.63
2023-04-04T23:53:41.292Z,12.63
2023-04-04T23:56:09.329Z,11.57
2023-04-04T23:58:38.070Z,9.20
